createdAt,value
2023-02-19T00:02:12.290Z,956.19
2023-02-19T00:03:12.292Z,956.21
2023-02-19T00:05:13.398Z,956.27
2023-02-19T00:10:12.110Z,956.24
2023-02-19T00:13:29.009Z,956.18
2023-02-19T00:16:12.266Z,956.29
2023-02-19T00:39:16.656Z,955.82
2023-02-19T00:40:18.665Z,955.82
2023-02-19T00:41:20.678Z,955.78
2023-02-19T00:42:22.662Z,955.79
2023-02-19T00:43:24.676Z,955.78
2023-02-19T00:44:26.655Z,955.78
2023-02-19T00:45:28.662Z,955.71
2023-02-19T00:47:12.313Z,955.81
2023-02-19T00:48:12.275Z,955.83
2023-02-19T00:49:40.296Z,955.77
2023-02-19T00:50:42.314Z,955.84
2023-02-19T00:51:44.327Z,955.85
2023-02-19T00:54:12.290Z,955.94
2023-02-19T00:55:12.293Z,955.92
2023-02-19T00:56:56.804Z,955.86
2023-02-19T00:57:58.773Z,955.85
2023-02-19T00:59:00.772Z,955.83
2023-02-19T01:00:02.793Z,955.77
2023-02-19T01:01:04.758Z,955.74
2023-02-19T01:05:17.070Z,955.78
2023-02-19T01:06:18.924Z,955.7
2023-02-19T01:07:20.959Z,955.67
2023-02-19T01:08:23.912Z,955.68
2023-02-19T01:09:25.940Z,955.74
2023-02-19T01:10:33.953Z,955.74
2023-02-19T01:11:35.988Z,955.72
2023-02-19T01:15:00.137Z,955.71
2023-02-19T01:20:38.648Z,955.67
2023-02-19T01:21:12.504Z,955.54
2023-02-19T01:22:12.295Z,955.5
2023-02-19T01:23:13.244Z,955.42
2023-02-19T01:24:12.306Z,955.38
2023-02-19T01:25:12.320Z,955.34
2023-02-19T01:26:12.324Z,955.24
2023-02-19T01:28:12.317Z,955.21
2023-02-19T01:29:12.305Z,955.22
2023-02-19T01:30:12.380Z,955.2
2023-02-19T01:31:12.765Z,955.21
2023-02-19T01:34:12.357Z,955.13
2023-02-19T01:35:59.561Z,955.15
2023-02-19T01:38:28.199Z,955.09
2023-02-19T01:40:50.173Z,955.09
2023-02-19T01:41:52.143Z,955.09
2023-02-19T01:43:56.143Z,954.93
2023-02-19T01:44:58.136Z,954.94
2023-02-19T01:46:00.184Z,954.99
2023-02-19T01:47:02.193Z,954.83
2023-02-19T01:48:05.145Z,954.84
2023-02-19T01:49:54.238Z,954.86
2023-02-19T01:51:14.606Z,954.81
2023-02-19T01:52:16.627Z,954.82
2023-02-19T01:53:19.237Z,954.87
2023-02-19T01:54:26.871Z,954.81
2023-02-19T02:12:19.410Z,954.67
2023-02-19T02:14:35.737Z,954.65
2023-02-19T02:40:12.691Z,954.56
2023-02-19T02:40:13.062Z,954.53
2023-02-19T02:40:39.427Z,954.02
2023-02-19T02:41:39.404Z,954
2023-02-19T02:42:39.398Z,953.97
2023-02-19T02:45:51.472Z,953.98
2023-02-19T02:46:54.451Z,954.04
2023-02-19T02:48:24.486Z,954.09
2023-02-19T02:49:26.462Z,954.16
2023-02-19T02:50:28.511Z,954.1
2023-02-19T02:51:30.525Z,954.08
2023-02-19T02:53:09.734Z,954.12
2023-02-19T02:53:56.475Z,954.05
2023-02-19T03:13:53.942Z,954.13
2023-02-19T03:13:54.616Z,953.96
2023-02-19T03:14:57.570Z,954.03
2023-02-19T03:15:59.553Z,954.04
2023-02-19T03:17:01.558Z,954.02
2023-02-19T03:18:03.557Z,954
2023-02-19T03:19:07.557Z,953.99
2023-02-19T03:20:10.605Z,953.93
2023-02-19T03:21:13.133Z,953.95
2023-02-19T03:22:15.168Z,953.96
2023-02-19T03:23:17.142Z,953.93
2023-02-19T03:24:19.136Z,953.91
2023-02-19T03:25:21.186Z,953.95
2023-02-19T03:26:23.175Z,953.86
2023-02-19T03:27:25.165Z,953.87
2023-02-19T03:28:27.143Z,953.88
2023-02-19T03:29:30.180Z,953.87
2023-02-19T03:30:32.217Z,953.9
2023-02-19T03:31:35.242Z,953.84
2023-02-19T03:32:38.177Z,953.84
2023-02-19T03:33:40.151Z,953.81
2023-02-19T03:34:43.145Z,953.83
2023-02-19T03:35:45.148Z,953.79
2023-02-19T03:36:47.142Z,953.84
2023-02-19T03:37:49.154Z,953.85
2023-02-19T03:38:51.141Z,953.89
2023-02-19T03:39:53.149Z,953.85
2023-02-19T03:40:55.173Z,953.76
2023-02-19T03:44:42.137Z,953.78
2023-02-19T03:45:44.212Z,953.78
2023-02-19T03:46:46.142Z,953.76
2023-02-19T03:47:48.161Z,953.72
2023-02-19T03:49:52.464Z,953.7
2023-02-19T03:50:54.421Z,953.63
2023-02-19T03:51:57.435Z,953.67
2023-02-19T03:52:59.422Z,953.65
2023-02-19T03:54:15.140Z,953.7
2023-02-19T04:40:22.616Z,953.67
2023-02-19T04:40:22.793Z,953.65
2023-02-19T04:41:09.474Z,953.75
2023-02-19T04:42:09.198Z,953.81
2023-02-19T04:44:09.202Z,953.76
2023-02-19T04:45:09.200Z,953.76
2023-02-19T04:46:09.452Z,953.77
2023-02-19T04:47:11.144Z,953.76
2023-02-19T04:48:13.142Z,953.68
2023-02-19T04:49:15.139Z,953.73
2023-02-19T04:50:17.138Z,953.72
2023-02-19T04:51:19.155Z,953.69
2023-02-19T04:52:21.145Z,953.72
2023-02-19T04:53:23.153Z,953.79
2023-02-19T04:54:26.154Z,953.79
2023-02-19T04:55:28.146Z,953.77
2023-02-19T04:56:30.153Z,953.83
2023-02-19T04:57:32.151Z,953.83
2023-02-19T04:58:34.152Z,953.78
2023-02-19T04:59:36.162Z,953.86
2023-02-19T05:00:38.143Z,953.81
2023-02-19T05:01:40.200Z,953.87
2023-02-19T05:02:42.151Z,953.86
2023-02-19T05:03:44.151Z,953.9
2023-02-19T05:04:46.204Z,953.85
2023-02-19T05:05:48.149Z,953.79
2023-02-19T05:06:50.144Z,953.76
2023-02-19T05:07:53.183Z,953.88
2023-02-19T05:08:56.160Z,953.79
2023-02-19T05:09:58.189Z,953.67
2023-02-19T05:11:00.160Z,953.64
2023-02-19T05:12:02.153Z,953.68
2023-02-19T05:13:04.156Z,953.59
2023-02-19T05:14:06.151Z,953.63
2023-02-19T05:15:08.225Z,953.67
2023-02-19T05:16:10.258Z,953.57
2023-02-19T05:17:12.148Z,953.62
2023-02-19T05:18:14.163Z,953.66
2023-02-19T05:19:16.200Z,953.63
2023-02-19T05:20:18.160Z,953.66
2023-02-19T05:21:20.232Z,953.67
2023-02-19T05:22:22.163Z,953.65
2023-02-19T05:23:24.165Z,953.6
2023-02-19T05:24:27.166Z,953.55
2023-02-19T05:25:29.195Z,953.65
2023-02-19T05:26:31.225Z,953.62
2023-02-19T05:27:33.206Z,953.62
2023-02-19T05:28:35.178Z,953.61
2023-02-19T05:29:37.177Z,953.73
2023-02-19T05:30:39.162Z,953.73
2023-02-19T05:31:42.287Z,953.78
2023-02-19T05:32:44.194Z,953.76
2023-02-19T05:33:46.173Z,953.73
2023-02-19T05:34:48.201Z,953.62
2023-02-19T05:35:50.171Z,953.72
2023-02-19T05:36:53.187Z,953.78
2023-02-19T05:37:56.215Z,953.69
2023-02-19T05:38:58.185Z,953.73
2023-02-19T05:40:00.172Z,953.71
2023-02-19T05:41:02.173Z,953.68
2023-02-19T05:42:04.202Z,953.63
2023-02-19T05:43:06.173Z,953.69
2023-02-19T05:44:08.206Z,953.66
2023-02-19T05:45:10.176Z,953.67
2023-02-19T05:46:12.228Z,953.68
2023-02-19T05:47:14.183Z,953.68
2023-02-19T05:48:16.177Z,953.7
2023-02-19T05:49:18.179Z,953.71
2023-02-19T05:50:20.183Z,953.75
2023-02-19T05:51:22.181Z,953.79
2023-02-19T05:52:24.207Z,953.74
2023-02-19T05:53:27.176Z,953.79
2023-02-19T05:54:29.185Z,953.8
2023-02-19T05:55:31.195Z,953.82
2023-02-19T05:56:34.274Z,953.78
2023-02-19T05:57:36.197Z,953.76
2023-02-19T06:17:43.296Z,953.81
2023-02-19T06:17:43.703Z,953.85
2023-02-19T06:18:12.639Z,953.85
2023-02-19T06:20:26.394Z,953.82
2023-02-19T06:21:13.069Z,953.81
2023-02-19T06:22:12.829Z,953.82
2023-02-19T06:23:12.655Z,953.86
2023-02-19T06:24:12.654Z,953.83
2023-02-19T06:25:12.664Z,953.92
2023-02-19T06:26:12.642Z,953.86
2023-02-19T06:27:12.650Z,953.82
2023-02-19T06:28:12.697Z,953.88
2023-02-19T06:29:12.706Z,953.88
2023-02-19T06:30:12.698Z,953.87
2023-02-19T06:31:13.088Z,953.84
2023-02-19T06:32:12.757Z,953.89
2023-02-19T06:33:12.659Z,953.9
2023-02-19T06:34:12.703Z,953.91
2023-02-19T06:35:12.663Z,953.91
2023-02-19T06:36:12.659Z,953.9
2023-02-19T06:37:12.666Z,953.96
2023-02-19T06:38:24.165Z,953.99
2023-02-19T06:39:12.802Z,953.92
2023-02-19T06:40:12.816Z,953.97
2023-02-19T06:41:13.134Z,954.01
2023-02-19T06:42:12.674Z,953.98
2023-02-19T06:43:25.908Z,953.93
2023-02-19T06:44:12.681Z,953.89
2023-02-19T06:45:12.669Z,953.9
2023-02-19T06:46:12.738Z,953.86
2023-02-19T06:47:12.671Z,953.85
2023-02-19T06:48:12.697Z,953.8
2023-02-19T06:49:13.951Z,953.85
2023-02-19T06:50:15.959Z,953.83
2023-02-19T06:51:17.938Z,953.83
2023-02-19T06:52:19.953Z,953.82
2023-02-19T06:53:22.968Z,953.87
2023-02-19T06:54:24.936Z,953.93
2023-02-19T06:55:26.958Z,953.93
2023-02-19T06:56:28.942Z,954.01
2023-02-19T06:57:30.943Z,954.01
2023-02-19T06:58:32.944Z,954.03
2023-02-19T06:59:34.950Z,954.07
2023-02-19T07:00:37.002Z,954.01
2023-02-19T07:01:38.960Z,954.03
2023-02-19T07:02:40.944Z,954.01
2023-02-19T07:03:42.975Z,954
2023-02-19T07:04:45.980Z,954.11
2023-02-19T07:05:48.984Z,954.07
2023-02-19T07:06:50.942Z,954.11
2023-02-19T07:07:52.954Z,954.16
2023-02-19T07:08:55.041Z,954.21
2023-02-19T07:09:56.959Z,954.16
2023-02-19T07:10:58.971Z,954.21
2023-02-19T07:12:00.970Z,954.21
2023-02-19T07:13:02.969Z,954.21
2023-02-19T07:14:04.941Z,954.21
2023-02-19T07:15:06.959Z,954.22
2023-02-19T07:16:09.018Z,954.33
2023-02-19T07:17:11.950Z,954.31
2023-02-19T07:20:28.188Z,954.38
2023-02-19T07:36:37.846Z,954.43
2023-02-19T07:36:38.276Z,954.39
2023-02-19T07:37:23.471Z,954.69
2023-02-19T07:38:23.468Z,954.66
2023-02-19T07:39:23.436Z,954.71
2023-02-19T07:40:23.434Z,954.78
2023-02-19T07:41:23.441Z,954.76
2023-02-19T07:42:23.446Z,954.85
2023-02-19T07:43:23.483Z,954.88
2023-02-19T07:44:24.794Z,954.85
2023-02-19T07:45:27.837Z,954.88
2023-02-19T07:47:31.837Z,954.93
2023-02-19T07:48:33.831Z,954.87
2023-02-19T07:49:35.789Z,954.93
2023-02-19T07:50:37.824Z,954.98
2023-02-19T07:51:41.827Z,954.98
2023-02-19T07:52:43.808Z,954.93
2023-02-19T07:53:45.794Z,955.01
2023-02-19T07:54:47.795Z,955.01
2023-02-19T07:55:49.853Z,955.01
2023-02-19T07:56:51.870Z,955
2023-02-19T07:57:53.801Z,954.91
2023-02-19T07:58:55.800Z,955.02
2023-02-19T07:59:57.812Z,954.98
2023-02-19T08:00:59.839Z,955.05
2023-02-19T08:02:02.889Z,954.98
2023-02-19T08:03:04.832Z,954.96
2023-02-19T08:04:06.847Z,954.97
2023-02-19T08:05:08.815Z,954.96
2023-02-19T08:06:11.983Z,954.98
2023-02-19T08:07:13.802Z,955.11
2023-02-19T08:08:15.809Z,955
2023-02-19T08:09:17.859Z,954.99
2023-02-19T08:10:19.858Z,954.97
2023-02-19T08:11:22.805Z,954.98
2023-02-19T08:12:24.808Z,955.03
2023-02-19T08:13:26.806Z,955.04
2023-02-19T08:14:29.800Z,955.25
2023-02-19T08:15:31.843Z,955.05
2023-02-19T08:16:42.904Z,955.11
2023-02-19T08:17:35.814Z,955.28
2023-02-19T08:18:37.834Z,955.36
2023-02-19T08:19:40.818Z,955.34
2023-02-19T08:20:42.824Z,955.29
2023-02-19T08:21:44.877Z,955.52
2023-02-19T08:22:46.809Z,955.4
2023-02-19T08:23:51.025Z,955.38
2023-02-19T08:24:50.825Z,955.4
2023-02-19T08:25:53.819Z,955.38
2023-02-19T08:26:55.835Z,955.45
2023-02-19T08:27:57.819Z,955.37
2023-02-19T08:28:59.827Z,955.41
2023-02-19T08:30:01.875Z,955.43
2023-02-19T08:31:04.933Z,955.42
2023-02-19T08:32:06.898Z,955.36
2023-02-19T08:33:08.859Z,955.41
2023-02-19T08:34:11.836Z,955.5
2023-02-19T08:35:13.828Z,955.49
2023-02-19T08:36:15.857Z,955.49
2023-02-19T08:37:17.824Z,955.54
2023-02-19T08:38:19.825Z,955.57
2023-02-19T08:39:22.880Z,955.58
2023-02-19T08:40:39.104Z,955.54
2023-02-19T08:41:26.822Z,955.54
2023-02-19T08:42:28.899Z,955.53
2023-02-19T08:43:31.821Z,955.61
2023-02-19T08:44:34.828Z,955.61
2023-02-19T08:45:37.856Z,955.62
2023-02-19T08:46:40.822Z,955.61
2023-02-19T08:47:42.886Z,955.59
2023-02-19T08:48:44.871Z,955.53
2023-02-19T08:49:46.848Z,955.55
2023-02-19T08:50:48.843Z,955.63
2023-02-19T08:51:50.824Z,955.67
2023-02-19T08:52:52.842Z,955.68
2023-02-19T08:53:54.926Z,955.6
2023-02-19T08:54:56.889Z,955.7
2023-02-19T08:55:59.013Z,955.74
2023-02-19T08:57:01.843Z,955.67
2023-02-19T08:58:03.860Z,955.77
2023-02-19T08:59:05.866Z,955.78
2023-02-19T09:00:07.830Z,955.8
2023-02-19T09:01:10.278Z,955.83
2023-02-19T09:02:12.841Z,955.8
2023-02-19T09:03:14.948Z,955.93
2023-02-19T09:04:16.903Z,955.98
2023-02-19T09:05:18.843Z,956
2023-02-19T09:06:20.870Z,956
2023-02-19T09:07:22.845Z,956.02
2023-02-19T09:08:25.831Z,955.99
2023-02-19T09:09:27.834Z,955.98
2023-02-19T09:10:29.880Z,956.02
2023-02-19T09:11:31.878Z,956.02
2023-02-19T09:12:33.836Z,956
2023-02-19T09:13:37.875Z,955.92
2023-02-19T09:14:40.848Z,955.97
2023-02-19T09:16:23.499Z,955.86
2023-02-19T09:17:23.545Z,955.92
2023-02-19T09:18:23.508Z,955.97
2023-02-19T09:19:23.504Z,955.9
2023-02-19T09:21:23.507Z,956
2023-02-19T09:22:23.580Z,955.98
2023-02-19T09:23:23.515Z,955.91
2023-02-19T09:24:23.509Z,956.07
2023-02-19T09:25:23.557Z,956.1
2023-02-19T09:26:23.616Z,956.08
2023-02-19T09:27:23.533Z,956.06
2023-02-19T09:28:23.517Z,956.06
2023-02-19T09:29:23.509Z,956.05
2023-02-19T09:30:23.654Z,956.1
2023-02-19T09:31:23.609Z,956.07
2023-02-19T09:32:23.551Z,956.1
2023-02-19T09:33:23.513Z,956.09
2023-02-19T09:34:23.520Z,956.03
2023-02-19T09:35:23.905Z,956.09
2023-02-19T09:36:25.861Z,956.17
2023-02-19T09:37:27.951Z,956.21
2023-02-19T09:38:30.931Z,956.13
2023-02-19T09:39:33.863Z,956.08
2023-02-19T09:40:35.888Z,956.06
2023-02-19T09:41:37.885Z,956.16
2023-02-19T09:43:44.899Z,956.11
2023-02-19T09:44:46.869Z,956.11
2023-02-19T09:45:48.881Z,956.19
2023-02-19T09:46:50.866Z,956.12
2023-02-19T09:48:23.530Z,956.18
2023-02-19T09:49:25.750Z,956.18
2023-02-19T09:50:23.544Z,956.17
2023-02-19T09:51:23.530Z,956.14
2023-02-19T09:52:23.529Z,956.27
2023-02-19T09:55:14.628Z,956.13
2023-02-19T10:00:03.711Z,956.15
2023-02-19T10:29:23.702Z,956.21
2023-02-19T10:29:24.121Z,956.2
2023-02-19T10:31:16.060Z,956.26
2023-02-19T10:32:15.643Z,956.18
2023-02-19T10:33:15.572Z,956.17
2023-02-19T10:34:15.549Z,956.17
2023-02-19T10:35:15.578Z,956.32
2023-02-19T10:36:15.558Z,956.35
2023-02-19T10:37:15.559Z,956.29
2023-02-19T10:38:15.574Z,956.35
2023-02-19T10:39:15.564Z,956.38
2023-02-19T10:54:27.029Z,957.39
2023-02-19T11:00:07.797Z,957.54
2023-02-19T11:01:10.176Z,957.6
2023-02-19T11:03:21.035Z,957.62
2023-02-19T11:05:12.331Z,957.58
2023-02-19T11:05:51.212Z,957.59
2023-02-19T11:06:51.210Z,957.58
2023-02-19T11:07:51.248Z,957.65
2023-02-19T11:14:17.591Z,957.63
2023-02-19T11:14:18.198Z,957.7
2023-02-19T11:27:50.105Z,957.86
2023-02-19T11:29:14.464Z,957.94
2023-02-19T11:30:16.597Z,957.97
2023-02-19T11:31:53.521Z,957.9
2023-02-19T11:32:53.401Z,957.89
2023-02-19T11:33:53.397Z,957.9
2023-02-19T11:34:53.401Z,957.89
2023-02-19T11:35:53.614Z,957.88
2023-02-19T11:36:53.402Z,957.9
2023-02-19T11:37:53.424Z,957.91
2023-02-19T11:38:53.407Z,957.97
2023-02-19T11:39:53.433Z,957.99
2023-02-19T11:41:41.121Z,958
2023-02-19T11:45:24.578Z,958.09
2023-02-19T12:14:17.165Z,958.07
2023-02-19T12:14:18.544Z,958.08
2023-02-19T12:14:56.007Z,958.53
2023-02-19T12:17:41.880Z,958.56
2023-02-19T12:18:43.507Z,958.57
2023-02-19T12:19:45.469Z,958.64
2023-02-19T12:20:47.433Z,958.66
2023-02-19T12:21:49.494Z,958.69
2023-02-19T12:22:51.458Z,958.66
2023-02-19T12:24:57.994Z,958.63
2023-02-19T12:26:00.944Z,958.61
2023-02-19T12:27:02.947Z,958.63
2023-02-19T12:28:04.988Z,958.59
2023-02-19T12:31:24.691Z,958.67
2023-02-19T12:32:24.332Z,958.63
2023-02-19T12:33:26.282Z,958.64
2023-02-19T12:34:28.269Z,958.69
2023-02-19T12:35:30.273Z,958.7
2023-02-19T12:36:33.281Z,958.72
2023-02-19T12:37:35.323Z,958.62
2023-02-19T12:38:37.326Z,958.6
2023-02-19T12:39:39.272Z,958.66
2023-02-19T12:40:41.264Z,958.72
2023-02-19T12:43:47.628Z,958.74
2023-02-19T12:44:49.605Z,958.71
2023-02-19T12:45:51.640Z,958.74
2023-02-19T12:46:53.655Z,958.69
2023-02-19T12:47:55.610Z,958.75
2023-02-19T12:48:58.644Z,958.78
2023-02-19T12:50:01.835Z,958.76
2023-02-19T12:51:03.627Z,958.82
2023-02-19T12:52:05.650Z,958.88
2023-02-19T12:54:09.759Z,958.88
2023-02-19T12:59:43.303Z,958.92
2023-02-19T13:00:45.224Z,958.95
2023-02-19T13:01:47.253Z,958.92
2023-02-19T13:02:49.257Z,958.93
2023-02-19T13:03:55.989Z,958.93
2023-02-19T13:04:55.985Z,958.91
2023-02-19T13:05:55.988Z,958.92
2023-02-19T13:06:57.254Z,958.88
2023-02-19T13:07:59.224Z,958.86
2023-02-19T13:09:06.709Z,958.89
2023-02-19T13:10:03.232Z,958.91
2023-02-19T13:11:05.373Z,958.97
2023-02-19T13:12:07.270Z,958.99
2023-02-19T13:13:09.241Z,958.93
2023-02-19T13:14:11.223Z,958.98
2023-02-19T13:15:13.226Z,958.94
2023-02-19T13:16:56.081Z,958.92
2023-02-19T13:17:56.231Z,958.99
2023-02-19T13:18:56.019Z,958.96
2023-02-19T13:23:16.466Z,958.94
2023-02-19T13:23:16.965Z,958.93
2023-02-19T13:25:18.334Z,958.96
2023-02-19T13:25:19.043Z,958.91
2023-02-19T13:26:05.386Z,958.87
2023-02-19T13:27:07.390Z,958.88
2023-02-19T13:28:09.390Z,958.86
2023-02-19T13:29:12.385Z,958.88
2023-02-19T13:30:14.439Z,958.89
2023-02-19T13:31:16.765Z,958.92
2023-02-19T13:32:18.429Z,958.93
2023-02-19T13:33:20.425Z,958.99
2023-02-19T13:34:22.432Z,958.99
2023-02-19T13:35:24.418Z,959.06
2023-02-19T13:36:26.419Z,959.06
2023-02-19T13:37:28.393Z,959.04
2023-02-19T13:38:30.396Z,959.1
2023-02-19T13:39:32.388Z,959.12
2023-02-19T13:40:34.396Z,959.1
2023-02-19T13:41:36.435Z,959.1
2023-02-19T13:42:38.390Z,959.12
2023-02-19T13:43:40.434Z,959.1
2023-02-19T13:44:42.434Z,959.1
2023-02-19T13:45:44.430Z,959.11
2023-02-19T13:46:50.433Z,959.09
2023-02-19T13:47:52.401Z,959.13
2023-02-19T13:48:54.403Z,959.12
2023-02-19T13:49:56.415Z,959.09
2023-02-19T13:50:58.400Z,959.14
2023-02-19T13:52:01.391Z,959.19
2023-02-19T13:53:03.396Z,959.22
2023-02-19T13:54:05.410Z,959.24
2023-02-19T13:55:08.442Z,959.28
2023-02-19T13:56:10.405Z,959.24
2023-02-19T13:57:12.424Z,959.27
2023-02-19T13:58:14.406Z,959.26
2023-02-19T13:59:16.388Z,959.24
2023-02-19T14:00:18.427Z,959.22
2023-02-19T14:01:20.460Z,959.18
2023-02-19T14:02:22.700Z,959.16
2023-02-19T14:03:24.401Z,959.18
2023-02-19T14:04:26.412Z,959.21
2023-02-19T14:05:28.424Z,959.23
2023-02-19T14:06:30.402Z,959.25
2023-02-19T14:07:32.440Z,959.27
2023-02-19T14:08:34.444Z,959.31
2023-02-19T14:12:43.130Z,959.34
2023-02-19T14:13:46.098Z,959.39
2023-02-19T14:14:49.144Z,959.4
2023-02-19T14:15:51.166Z,959.48
2023-02-19T14:16:53.122Z,959.53
2023-02-19T14:17:55.074Z,959.52
2023-02-19T14:21:53.912Z,959.44
2023-02-19T14:27:57.944Z,959.62
2023-02-19T14:28:59.779Z,959.61
2023-02-19T14:30:01.813Z,959.6
2023-02-19T14:31:03.839Z,959.65
2023-02-19T14:32:05.834Z,959.62
2023-02-19T14:33:10.877Z,959.65
2023-02-19T14:34:17.768Z,959.67
2023-02-19T14:35:11.816Z,959.72
2023-02-19T14:36:13.858Z,959.72
2023-02-19T14:38:17.856Z,959.66
2023-02-19T14:39:19.813Z,959.68
2023-02-19T14:40:21.842Z,959.66
2023-02-19T14:41:23.818Z,959.65
2023-02-19T14:42:25.822Z,959.69
2023-02-19T14:43:27.896Z,959.69
2023-02-19T14:44:29.886Z,959.72
2023-02-19T14:45:31.821Z,959.69
2023-02-19T14:46:33.875Z,959.7
2023-02-19T14:47:35.864Z,959.75
2023-02-19T14:48:37.857Z,959.73
2023-02-19T14:49:39.857Z,959.76
2023-02-19T14:50:42.866Z,959.74
2023-02-19T14:51:44.844Z,959.74
2023-02-19T14:52:46.835Z,959.75
2023-02-19T14:53:49.893Z,959.74
2023-02-19T14:54:51.821Z,959.67
2023-02-19T14:55:53.841Z,959.71
2023-02-19T14:56:55.837Z,959.7
2023-02-19T14:57:57.850Z,959.71
2023-02-19T14:58:59.842Z,959.72
2023-02-19T15:00:02.942Z,959.71
2023-02-19T15:01:05.824Z,959.69
2023-02-19T15:02:07.836Z,959.69
2023-02-19T15:03:09.838Z,959.67
2023-02-19T15:04:56.211Z,959.65
2023-02-19T15:05:56.056Z,959.66
2023-02-19T15:06:56.057Z,959.68
2023-02-19T15:07:56.114Z,959.66
2023-02-19T15:09:56.093Z,959.66
2023-02-19T15:10:56.066Z,959.66
2023-02-19T15:11:56.111Z,959.67
2023-02-19T15:12:56.103Z,959.69
2023-02-19T15:42:00.599Z,959.67
2023-02-19T15:42:00.823Z,959.79
2023-02-19T15:42:22.081Z,960.02
2023-02-19T15:43:22.056Z,960.06
2023-02-19T15:44:22.064Z,960.09
2023-02-19T15:47:25.161Z,960.13
2023-02-19T15:49:22.119Z,960.14
2023-02-19T15:52:36.140Z,960.24
2023-02-19T15:54:22.070Z,960.26
2023-02-19T15:55:22.078Z,960.26
2023-02-19T15:56:22.092Z,960.27
2023-02-19T15:57:22.069Z,960.24
2023-02-19T15:58:22.070Z,960.25
2023-02-19T16:00:22.108Z,960.17
2023-02-19T16:01:22.178Z,960.19
2023-02-19T16:02:22.087Z,960.23
2023-02-19T16:03:22.082Z,960.22
2023-02-19T16:04:22.077Z,960.21
2023-02-19T16:05:22.114Z,960.21
2023-02-19T16:06:22.086Z,960.24
2023-02-19T16:07:22.077Z,960.27
2023-02-19T16:11:42.741Z,960.26
2023-02-19T16:11:43.087Z,960.25
2023-02-19T16:15:22.088Z,960.27
2023-02-19T16:20:16.537Z,960.36
2023-02-19T16:21:18.545Z,960.36
2023-02-19T17:05:27.705Z,960.84
2023-02-19T17:06:30.592Z,960.86
2023-02-19T17:07:50.426Z,960.91
2023-02-19T17:08:36.423Z,960.93
2023-02-19T17:09:50.408Z,960.92
2023-02-19T17:10:50.499Z,960.96
2023-02-19T17:16:38.893Z,961.1
2023-02-19T17:17:40.778Z,961.16
2023-02-19T17:18:42.758Z,961.17
2023-02-19T17:19:45.415Z,961.16
2023-02-19T17:24:05.924Z,961.2
2023-02-19T17:24:06.331Z,961.2
2023-02-19T17:24:36.513Z,961.24
2023-02-19T18:09:55.589Z,961.21
2023-02-19T18:09:55.970Z,961.2
2023-02-19T18:28:55.467Z,961.88
2023-02-19T18:28:55.900Z,961.89
2023-02-19T18:29:41.723Z,961.91
2023-02-19T18:30:41.837Z,961.86
2023-02-19T18:32:41.818Z,961.86
2023-02-19T18:33:41.726Z,961.85
2023-02-19T18:36:40.970Z,961.91
2023-02-19T18:37:25.914Z,961.96
2023-02-19T18:38:27.960Z,961.99
2023-02-19T18:39:29.962Z,961.94
2023-02-19T18:40:31.933Z,961.85
2023-02-19T18:41:33.954Z,961.86
2023-02-19T18:42:35.924Z,961.84
2023-02-19T18:43:37.914Z,961.85
2023-02-19T18:44:39.952Z,961.85
2023-02-19T18:45:42.093Z,961.85
2023-02-19T18:46:43.917Z,961.88
2023-02-19T18:48:41.464Z,961.87
2023-02-19T18:49:51.812Z,961.89
2023-02-19T18:57:11.213Z,961.97
2023-02-19T18:58:28.952Z,961.95
2023-02-19T18:59:16.428Z,961.94
2023-02-19T19:00:18.425Z,961.93
2023-02-19T19:01:20.450Z,961.99
2023-02-19T19:02:22.925Z,962
2023-02-19T19:03:41.755Z,961.97
2023-02-19T19:04:41.748Z,961.95
2023-02-19T19:06:41.797Z,961.99
2023-02-19T19:10:41.789Z,961.95
2023-02-19T19:11:41.768Z,961.95
2023-02-19T19:12:42.981Z,961.96
2023-02-19T19:13:44.946Z,961.97
2023-02-19T19:14:46.935Z,961.97
2023-02-19T19:15:49.982Z,961.97
2023-02-19T19:16:51.936Z,961.98
2023-02-19T19:17:53.968Z,962.02
2023-02-19T19:19:01.376Z,962.06
2023-02-19T19:20:41.816Z,962.02
2023-02-19T19:23:09.391Z,962.02
2023-02-19T19:24:11.403Z,962.05
2023-02-19T19:25:14.451Z,962.04
2023-02-19T19:26:17.409Z,962.08
2023-02-19T19:27:19.378Z,962.08
2023-02-19T19:30:44.758Z,962.04
2023-02-19T19:36:59.148Z,962.11
2023-02-19T19:38:01.120Z,962.15
2023-02-19T19:39:03.132Z,962.15
2023-02-19T19:40:05.139Z,962.13
2023-02-19T19:41:07.132Z,962.13
2023-02-19T19:42:10.134Z,962.11
2023-02-19T19:45:31.575Z,962.15
2023-02-19T19:50:55.458Z,962.2
2023-02-19T19:52:11.143Z,962.23
2023-02-19T19:54:02.486Z,962.27
2023-02-19T19:55:04.453Z,962.27
2023-02-19T19:57:09.029Z,962.31
2023-02-19T19:58:11.021Z,962.28
2023-02-19T20:00:15.074Z,962.26
2023-02-19T20:01:18.089Z,962.27
2023-02-19T20:02:20.164Z,962.3
2023-02-19T20:03:22.072Z,962.32
2023-02-19T20:04:24.059Z,962.36
2023-02-19T20:05:26.026Z,962.39
2023-02-19T20:06:28.036Z,962.39
2023-02-19T20:08:32.135Z,962.44
2023-02-19T20:09:34.054Z,962.43
2023-02-19T20:10:36.029Z,962.45
2023-02-19T20:12:41.831Z,962.47
2023-02-19T20:13:44.041Z,962.42
2023-02-19T20:14:46.082Z,962.4
2023-02-19T20:16:50.039Z,962.32
2023-02-19T20:17:52.079Z,962.31
2023-02-19T20:18:55.285Z,962.31
2023-02-19T20:20:59.050Z,962.3
2023-02-19T20:22:01.040Z,962.32
2023-02-19T20:23:03.108Z,962.33
2023-02-19T20:25:08.151Z,962.27
2023-02-19T20:26:11.046Z,962.25
2023-02-19T20:27:41.833Z,962.26
2023-02-19T20:28:41.797Z,962.32
2023-02-19T20:29:41.845Z,962.29
2023-02-19T20:30:41.835Z,962.27
2023-02-19T20:31:41.900Z,962.25
2023-02-19T20:32:41.812Z,962.24
2023-02-19T20:34:28.082Z,962.19
2023-02-19T20:36:47.442Z,962.17
2023-02-19T20:37:49.472Z,962.21
2023-02-19T20:38:51.446Z,962.21
2023-02-19T20:39:54.451Z,962.24
2023-02-19T20:40:56.489Z,962.24
2023-02-19T20:41:58.469Z,962.27
2023-02-19T20:43:00.501Z,962.22
2023-02-19T20:44:02.440Z,962.26
2023-02-19T20:45:04.454Z,962.25
2023-02-19T20:46:07.442Z,962.26
2023-02-19T20:47:09.445Z,962.23
2023-02-19T20:48:11.453Z,962.23
2023-02-19T20:49:13.500Z,962.24
2023-02-19T20:50:15.454Z,962.25
2023-02-19T20:51:17.489Z,962.29
2023-02-19T20:52:19.490Z,962.3
2023-02-19T20:53:21.442Z,962.33
2023-02-19T20:54:23.488Z,962.37
2023-02-19T20:55:41.868Z,962.36
2023-02-19T20:56:41.877Z,962.38
2023-02-19T20:59:46.987Z,962.36
2023-02-19T21:00:36.688Z,962.37
2023-02-19T21:01:38.643Z,962.35
2023-02-19T21:02:40.636Z,962.4
2023-02-19T21:03:42.646Z,962.39
2023-02-19T21:04:44.629Z,962.39
2023-02-19T21:05:46.667Z,962.41
2023-02-19T21:06:48.626Z,962.4
2023-02-19T21:08:57.549Z,962.37
2023-02-19T21:09:59.520Z,962.38
2023-02-19T21:11:29.778Z,962.36
2023-02-19T21:16:19.576Z,962.36
2023-02-19T21:19:26.482Z,962.35
2023-02-19T21:20:28.463Z,962.31
2023-02-19T21:21:31.501Z,962.34
2023-02-19T21:22:33.486Z,962.39
2023-02-19T21:23:36.531Z,962.4
2023-02-19T21:24:41.860Z,962.4
2023-02-19T21:25:41.903Z,962.43
2023-02-19T21:27:45.047Z,962.39
